Time;durP1;ratioP1;P1;durP2;ratioP2;P2;SDS_P1;SDS_P2;PMS_P1;PMS_P2;Temp;Humidity;BMP_temperature;BMP_pressure;BME280_temperature;BME280_humidity;BME280_pressure;Samples;Min_cycle;Max_cycle;Signal;HPM_P1;HPM_P2
2022/11/24 00:01:30;;;;;;;39.10;5.47;;;;;;;5.21;100.00;100297.94;5054425;28;20469;-79
2022/11/24 00:04:01;;;;;;;40.78;4.93;;;;;;;5.23;100.00;100298.78;5053896;28;20028;-79
2022/11/24 00:06:27;;;;;;;31.50;4.68;;;;;;;5.21;100.00;100309.13;5054637;28;20032;-79
2022/11/24 00:08:56;;;;;;;34.72;5.10;;;;;;;5.15;100.00;100301.44;5054327;28;20021;-80
2022/11/24 00:11:27;;;;;;;31.02;5.03;;;;;;;5.10;100.00;100304.09;5053745;28;20031;-79
2022/11/24 00:14:02;;;;;;;31.65;4.88;;;;;;;5.07;100.00;100303.25;5054308;28;20044;-79
2022/11/24 00:16:37;;;;;;;30.77;4.60;;;;;;;4.86;100.00;100268.13;5053678;28;20083;-80
2022/11/24 00:19:08;;;;;;;33.22;5.38;;;;;;;4.96;100.00;100290.41;5053412;28;20024;-79
2022/11/24 00:21:34;;;;;;;30.27;5.20;;;;;;;4.94;100.00;100289.59;5054413;28;20021;-80
2022/11/24 00:24:03;;;;;;;31.02;5.15;;;;;;;4.90;100.00;100282.72;5053292;28;20024;-79
2022/11/24 00:26:33;;;;;;;33.38;5.10;;;;;;;5.13;100.00;100327.31;5054162;28;20032;-80
2022/11/24 00:29:01;;;;;;;38.28;5.32;;;;;;;5.14;100.00;100323.00;5054291;28;20029;-79
2022/11/24 00:31:31;;;;;;;39.50;5.47;;;;;;;5.11;100.00;100330.78;5053503;28;20025;-80
2022/11/24 00:34:02;;;;;;;30.00;4.68;;;;;;;5.07;100.00;100329.94;5054161;28;20100;-80
2022/11/24 00:36:30;;;;;;;35.90;4.93;;;;;;;5.05;100.00;100320.50;5053788;28;20469;-79
2022/11/24 00:38:58;;;;;;;40.65;4.75;;;;;;;5.03;100.00;100332.56;5052403;28;20100;-79
2022/11/24 00:41:25;;;;;;;30.77;4.53;;;;;;;5.02;100.00;100328.28;5053825;28;20372;-80
2022/11/24 00:43:51;;;;;;;32.97;4.72;;;;;;;5.01;100.00;100324.84;5053616;28;20027;-79
2022/11/24 00:46:17;;;;;;;31.58;4.85;;;;;;;5.05;100.00;100320.50;5053152;28;20025;-79
2022/11/24 00:48:42;;;;;;;30.55;4.78;;;;;;;5.09;100.00;100324.75;5053880;28;20464;-79
2022/11/24 00:51:10;;;;;;;30.50;4.40;;;;;;;5.09;100.00;100333.34;5053586;28;20033;-80
2022/11/24 00:53:36;;;;;;;34.92;4.45;;;;;;;5.01;100.00;100323.97;5052624;28;20049;-80
2022/11/24 00:56:04;;;;;;;29.80;5.13;;;;;;;5.08;100.00;100336.81;5053736;28;20366;-80
2022/11/24 00:58:30;;;;;;;31.90;5.03;;;;;;;5.08;100.00;100339.41;5053720;28;20028;-80
2022/11/24 01:01:04;;;;;;;26.55;4.45;;;;;;;5.05;100.00;100339.44;5052536;28;20024;-79
2022/11/24 01:03:30;;;;;;;29.95;4.53;;;;;;;5.02;100.00;100338.59;5053622;28;20130;-80
2022/11/24 01:05:55;;;;;;;19.05;4.20;;;;;;;4.96;100.00;100342.09;5053299;28;20025;-80
2022/11/24 01:08:21;;;;;;;31.45;4.55;;;;;;;4.95;100.00;100345.56;5053432;28;20461;-79
2022/11/24 01:10:46;;;;;;;23.98;4.30;;;;;;;4.97;100.00;100361.91;5053534;28;20047;-79
2022/11/24 01:13:12;;;;;;;26.15;4.35;;;;;;;4.95;100.00;100355.03;5052443;28;20036;-80
2022/11/24 01:15:38;;;;;;;38.88;4.38;;;;;;;4.95;100.00;100355.03;5053360;28;20104;-80
2022/11/24 01:18:04;;;;;;;24.98;3.95;;;;;;;4.95;100.00;100357.63;5053490;28;20092;-79
2022/11/24 01:20:30;;;;;;;23.98;3.60;;;;;;;4.86;100.00;100349.06;5052443;28;20020;-79
2022/11/24 01:22:55;;;;;;;34.42;4.68;;;;;;;4.90;100.00;100358.50;5053225;28;20079;-79
2022/11/24 01:25:20;;;;;;;22.50;3.50;;;;;;;4.85;100.00;100362.84;5053164;28;20025;-80
2022/11/24 01:27:46;;;;;;;21.58;3.55;;;;;;;4.82;100.00;100362.00;5052650;28;20031;-79
2022/11/24 01:30:11;;;;;;;21.23;3.50;;;;;;;4.78;100.00;100362.91;5053102;28;20029;-80
2022/11/24 01:32:36;;;;;;;18.85;3.47;;;;;;;4.72;100.00;100363.81;5052769;28;20025;-79
2022/11/24 01:35:03;;;;;;;32.20;5.82;;;;;;;4.74;100.00;100363.78;5052312;28;20482;-80
2022/11/24 01:37:28;;;;;;;35.65;4.68;;;;;;;4.77;100.00;100376.69;5053312;28;20044;-79
2022/11/24 01:39:54;;;;;;;21.98;4.00;;;;;;;4.71;100.00;100362.09;5053199;28;20469;-79
2022/11/24 01:42:19;;;;;;;28.08;4.35;;;;;;;4.71;100.00;100364.69;5052445;28;20392;-79
2022/11/24 01:44:44;;;;;;;34.65;5.05;;;;;;;4.76;100.00;100374.97;5053137;28;20017;-79
2022/11/24 01:47:39;;;;;;;25.00;4.03;;;;;;;4.74;100.00;100379.28;5053225;28;20057;-80
2022/11/24 01:50:13;;;;;;;35.15;4.47;;;;;;;4.74;100.00;100381.84;5052779;28;20108;-79
2022/11/24 01:52:41;;;;;;;;;;;;;;;4.69;100.00;100382.75;5057493;28;20075;-80
2022/11/24 01:55:13;;;;;;;33.05;4.10;;;;;;;4.58;100.00;100376.81;5057033;28;19948;-79
2022/11/24 01:57:45;;;;;;;36.53;4.18;;;;;;;4.62;100.00;100373.34;5056856;28;20033;-79
2022/11/24 02:00:13;;;;;;;27.90;3.58;;;;;;;4.59;100.00;100377.66;5056650;28;20056;-79
2022/11/24 02:02:40;;;;;;;23.05;4.13;;;;;;;4.72;100.00;100394.78;5056028;28;20465;-79
2022/11/24 02:05:14;;;;;;;32.45;4.47;;;;;;;4.72;100.00;100399.09;5056984;28;20399;-80
2022/11/24 02:07:40;;;;;;;26.98;4.15;;;;;;;4.71;100.00;100400.84;5056905;28;20075;-80
2022/11/24 02:10:10;;;;;;;30.08;3.97;;;;;;;4.77;100.00;100405.09;5056110;28;20021;-80
2022/11/24 02:12:38;;;;;;;32.28;4.90;;;;;;;4.77;100.00;100403.34;5056622;28;20032;-79
2022/11/24 02:15:04;;;;;;;29.05;5.07;;;;;;;4.77;100.00;100403.34;5056259;28;20519;-79
2022/11/24 02:17:30;;;;;;;35.10;4.65;;;;;;;4.75;100.00;100409.41;5055907;28;20052;-80
2022/11/24 02:19:58;;;;;;;27.88;4.22;;;;;;;4.75;100.00;100409.41;5056675;28;20341;-80
2022/11/24 02:22:55;;;;;;;28.95;4.50;;;;;;;4.77;100.00;100413.69;5056423;28;20452;-79
2022/11/24 02:25:34;;;;;;;34.60;4.30;;;;;;;4.79;100.00;100416.28;5046285;28;20029;-80
2022/11/24 02:28:03;;;;;;;30.33;4.80;;;;;;;4.82;100.00;100411.09;5056301;28;20086;-79
2022/11/24 02:30:30;;;;;;;35.67;4.72;;;;;;;4.84;100.00;100404.16;5055711;28;20056;-80
2022/11/24 02:32:56;;;;;;;33.25;4.95;;;;;;;4.91;100.00;100408.44;5056415;28;20028;-79
2022/11/24 02:35:21;;;;;;;28.40;4.35;;;;;;;4.92;100.00;100418.75;5056166;28;20024;-80
2022/11/24 02:37:47;;;;;;;28.00;4.22;;;;;;;5.03;100.00;100418.66;5055493;28;20049;-79
2022/11/24 02:40:21;;;;;;;34.45;4.35;;;;;;;5.07;100.00;100428.13;5056134;28;20112;-79
2022/11/24 02:42:47;;;;;;;39.08;5.82;;;;;;;5.13;100.00;100422.94;5056273;28;20044;-79
2022/11/24 02:45:16;;;;;;;41.25;4.97;;;;;;;5.21;100.00;100427.16;5055226;28;20457;-80
2022/11/24 02:47:41;;;;;;;39.15;5.10;;;;;;;5.23;100.00;100421.13;5056168;28;20036;-80
2022/11/24 02:50:07;;;;;;;28.80;4.88;;;;;;;5.28;100.00;100421.91;5056076;28;20013;-79
2022/11/24 02:52:32;;;;;;;28.25;4.60;;;;;;;5.24;100.00;100409.06;5055203;28;20508;-80
2022/11/24 02:54:58;;;;;;;39.42;5.55;;;;;;;5.38;100.00;100428.72;5055606;28;20516;-80
2022/11/24 02:57:23;;;;;;;41.67;5.50;;;;;;;5.46;100.00;100432.97;5055879;28;20362;-80
2022/11/24 02:59:48;;;;;;;31.60;5.55;;;;;;;5.49;100.00;100428.63;5055129;28;20377;-80
2022/11/24 03:02:17;;;;;;;36.83;5.25;;;;;;;5.51;100.00;100433.78;5055082;28;20099;-80
2022/11/24 03:04:43;;;;;;;38.42;5.35;;;;;;;5.53;100.00;100437.22;5055749;28;20032;-79
2022/11/24 03:07:08;;;;;;;38.50;5.40;;;;;;;5.51;100.00;100429.47;5055041;28;20021;-79
2022/11/24 03:09:34;;;;;;;38.08;6.32;;;;;;;5.49;100.00;100432.94;5055556;28;20552;-80
2022/11/24 03:11:59;;;;;;;42.30;5.57;;;;;;;5.49;100.00;100440.69;5055207;28;20033;-79
2022/11/24 03:14:28;;;;;;;31.77;4.93;;;;;;;5.52;100.00;100444.09;5054152;28;20107;-79
2022/11/24 03:16:53;;;;;;;28.90;5.00;;;;;;;5.45;100.00;100431.25;5055002;28;20487;-80
2022/11/24 03:19:21;;;;;;;37.45;5.50;;;;;;;5.61;100.00;100450.94;5055135;28;20013;-79
2022/11/24 03:21:47;;;;;;;34.00;5.75;;;;;;;5.62;100.00;100447.47;5054667;28;20070;-79
2022/11/24 03:24:12;;;;;;;42.97;5.30;;;;;;;5.65;100.00;100447.44;5055278;28;20025;-79
2022/11/24 03:26:37;;;;;;;28.65;5.35;;;;;;;5.61;100.00;100446.63;5054345;28;20461;-80
2022/11/24 03:29:03;;;;;;;48.33;6.32;;;;;;;5.71;100.00;100455.13;5055238;28;20104;-79
2022/11/24 03:31:28;;;;;;;28.52;5.25;;;;;;;5.72;100.00;100456.88;5055043;28;20469;-79
2022/11/24 03:33:53;;;;;;;33.90;5.00;;;;;;;5.71;100.00;100447.38;5054485;28;20032;-79
2022/11/24 03:36:19;;;;;;;49.13;6.85;;;;;;;5.64;100.00;100441.41;5055232;28;20111;-80
2022/11/24 03:38:44;;;;;;;37.95;5.80;;;;;;;5.72;100.00;100450.81;5055159;28;20106;-79
2022/11/24 03:41:10;;;;;;;36.67;5.43;;;;;;;5.66;100.00;100436.25;5054016;28;20037;-79
2022/11/24 03:43:35;;;;;;;37.63;5.50;;;;;;;5.75;100.00;100450.78;5054814;28;20032;-80
2022/11/24 03:46:00;;;;;;;37.33;5.53;;;;;;;5.84;100.00;100458.47;5054946;28;20060;-79
2022/11/24 03:48:26;;;;;;;28.85;5.22;;;;;;;5.83;100.00;100455.03;5053928;28;20032;-80
2022/11/24 03:50:54;;;;;;;45.17;6.25;;;;;;;5.91;100.00;100459.25;5054823;28;20021;-79
2022/11/24 03:53:20;;;;;;;38.97;5.63;;;;;;;5.90;100.00;100448.06;5054287;28;20040;-80
2022/11/24 03:55:45;;;;;;;36.55;5.38;;;;;;;5.93;100.00;100458.41;5053742;28;20035;-79
2022/11/24 03:58:10;;;;;;;38.22;5.40;;;;;;;5.85;100.00;100445.53;5054669;28;20021;-79
2022/11/24 04:00:36;;;;;;;41.58;6.05;;;;;;;5.95;100.00;100453.19;5054498;28;20029;-79
2022/11/24 04:03:03;;;;;;;37.15;5.18;;;;;;;5.92;100.00;100448.03;5053728;28;20464;-79
2022/11/24 04:05:28;;;;;;;37.50;5.72;;;;;;;5.91;100.00;100457.53;5054272;28;20046;-79
2022/11/24 04:07:56;;;;;;;27.67;5.07;;;;;;;5.87;100.00;100464.47;5054702;28;20107;-79
2022/11/24 04:10:22;;;;;;;34.75;4.97;;;;;;;5.84;100.00;100469.66;5053825;28;20033;-79
2022/11/24 04:12:47;;;;;;;34.22;5.30;;;;;;;5.82;100.00;100468.84;5054252;28;20483;-79
2022/11/24 04:15:18;;;;;;;34.83;4.97;;;;;;;5.84;100.00;100472.25;5054446;28;20029;-79
2022/11/24 04:17:44;;;;;;;36.35;5.45;;;;;;;5.91;100.00;100480.81;5053475;28;20029;-79
2022/11/24 04:20:11;;;;;;;36.03;5.38;;;;;;;5.92;100.00;100482.53;5054319;28;20188;-80
2022/11/24 04:22:36;;;;;;;31.60;5.47;;;;;;;5.78;100.00;100459.38;5054061;28;20503;-79
2022/11/24 04:25:03;;;;;;;34.35;5.22;;;;;;;5.98;100.00;100491.97;5053518;28;20021;-80
2022/11/24 04:27:28;;;;;;;36.50;5.80;;;;;;;6.06;100.00;100506.56;5054100;28;20032;-80
2022/11/24 04:29:53;;;;;;;29.85;5.60;;;;;;;5.99;100.00;100493.72;5053762;28;20029;-80
2022/11/24 04:32:19;;;;;;;40.03;5.28;;;;;;;6.05;100.00;100504.00;5053464;28;20021;-80
2022/11/24 04:34:44;;;;;;;28.15;4.35;;;;;;;6.07;100.00;100518.63;5054147;28;20159;-80
2022/11/24 04:37:09;;;;;;;30.83;4.80;;;;;;;6.09;100.00;100526.41;5053431;28;20070;-80
2022/11/24 04:39:37;;;;;;;30.67;4.78;;;;;;;6.05;100.00;100522.13;5060524;23;20448;-80
2022/11/24 04:42:03;;;;;;;27.55;4.45;;;;;;;5.97;100.00;100518.75;5053838;28;20025;-80
2022/11/24 04:44:28;;;;;;;25.42;4.05;;;;;;;5.94;100.00;100518.78;5053200;28;20028;-80
2022/11/24 04:46:53;;;;;;;25.75;4.20;;;;;;;5.92;100.00;100523.06;5053516;28;20107;-79
2022/11/24 04:49:19;;;;;;;28.67;4.90;;;;;;;5.86;100.00;100518.81;5053547;28;20025;-79
2022/11/24 04:51:44;;;;;;;19.05;3.65;;;;;;;5.83;100.00;100524.03;5052751;28;20126;-79
2022/11/24 04:54:11;;;;;;;26.30;3.67;;;;;;;5.89;100.00;100523.13;5053784;28;20032;-79
2022/11/24 04:56:37;;;;;;;22.02;5.35;;;;;;;5.85;100.00;100533.50;5053738;28;20043;-79
2022/11/24 04:59:02;;;;;;;22.50;4.10;;;;;;;5.80;100.00;100524.03;5052709;28;20512;-79
2022/11/24 05:01:27;;;;;;;20.73;3.30;;;;;;;5.81;100.00;100525.75;5053426;28;20056;-79
2022/11/24 05:03:53;;;;;;;16.80;2.40;;;;;;;5.70;100.00;100515.50;5053748;28;20051;-79
2022/11/24 05:06:19;;;;;;;16.13;2.47;;;;;;;5.76;100.00;100527.53;5052851;28;20523;-79
2022/11/24 05:08:49;;;;;;;23.48;2.95;;;;;;;5.73;100.00;100527.56;5053558;28;20025;-79
2022/11/24 05:11:15;;;;;;;17.92;3.05;;;;;;;5.69;100.00;100534.50;5053306;28;20033;-79
2022/11/24 05:13:40;;;;;;;15.55;2.70;;;;;;;5.65;100.00;100527.63;5052736;28;20071;-79
2022/11/24 05:16:06;;;;;;;17.48;2.85;;;;;;;5.58;100.00;100525.94;5053276;28;20432;-79
2022/11/24 05:18:31;;;;;;;22.42;2.88;;;;;;;5.70;100.00;100543.09;5053406;28;20033;-79
2022/11/24 05:20:57;;;;;;;18.30;3.08;;;;;;;5.71;100.00;100544.81;5052676;28;20427;-79
2022/11/24 05:23:23;;;;;;;27.25;3.67;;;;;;;5.70;100.00;100545.69;5053435;28;20055;-79
2022/11/24 05:25:49;;;;;;;17.98;2.97;;;;;;;5.72;100.00;100536.19;5056446;28;20021;-79
2022/11/24 05:28:15;;;;;;;25.13;3.90;;;;;;;5.70;100.00;100543.97;5058821;28;20469;-79
2022/11/24 05:30:40;;;;;;;26.00;4.28;;;;;;;5.77;100.00;100552.53;5059701;28;20104;-79
2022/11/24 05:33:07;;;;;;;22.92;4.13;;;;;;;5.81;100.00;100555.06;5059983;28;20029;-79
2022/11/24 05:35:35;;;;;;;27.90;5.20;;;;;;;5.87;100.00;100556.75;5059100;28;20048;-79
2022/11/24 05:38:01;;;;;;;30.90;4.88;;;;;;;5.84;100.00;100547.28;5059541;28;20055;-80
2022/11/24 05:40:26;;;;;;;27.73;5.80;;;;;;;5.93;100.00;100563.63;5059019;28;20060;-79
2022/11/24 05:42:52;;;;;;;32.88;5.82;;;;;;;5.95;100.00;100561.88;5059700;28;20111;-79
2022/11/24 05:45:19;;;;;;;33.15;5.45;;;;;;;5.92;100.00;100559.28;5059606;28;20033;-79
2022/11/24 05:47:46;;;;;;;49.67;6.43;;;;;;;6.03;100.00;100581.66;5058611;28;20108;-79
2022/11/24 05:50:13;;;;;;;39.50;5.88;;;;;;;6.03;100.00;100573.03;5059942;28;20154;-79
2022/11/24 05:52:38;;;;;;;29.63;5.00;;;;;;;6.03;100.00;100578.22;5059946;28;20078;-79
2022/11/24 05:55:05;;;;;;;31.85;5.97;;;;;;;5.99;100.00;100571.34;5058950;28;20107;-79
2022/11/24 05:57:30;;;;;;;32.47;5.50;;;;;;;6.04;100.00;100585.09;5059572;28;20705;-79
2022/11/24 05:59:56;;;;;;;30.73;5.45;;;;;;;6.09;100.00;100593.69;5066495;23;20156;-79
2022/11/24 06:02:21;;;;;;;31.10;5.28;;;;;;;6.09;100.00;100598.84;5059101;28;20087;-79
2022/11/24 06:04:47;;;;;;;34.60;5.75;;;;;;;6.10;100.00;100600.56;5059687;28;20021;-79
2022/11/24 06:07:12;;;;;;;33.25;5.30;;;;;;;6.02;100.00;100592.03;5059426;28;20484;-79
2022/11/24 06:09:39;;;;;;;31.98;5.63;;;;;;;6.14;100.00;100628.13;5058481;28;20400;-79
2022/11/24 06:12:11;;;;;;;41.67;5.57;;;;;;;6.14;100.00;100624.69;5059662;28;20083;-79
2022/11/24 06:14:36;;;;;;;34.22;6.25;;;;;;;6.08;100.00;100623.88;5059506;28;20032;-79
2022/11/24 06:17:03;;;;;;;25.25;4.47;;;;;;;5.97;100.00;100605.00;5058784;28;20377;-79
2022/11/24 06:19:28;;;;;;;24.05;4.15;;;;;;;6.10;100.00;100631.63;5059385;28;20078;-79
2022/11/24 06:21:53;;;;;;;28.65;4.25;;;;;;;6.08;100.00;100633.34;5059445;28;20025;-79
2022/11/24 06:24:18;;;;;;;19.95;4.57;;;;;;;5.94;100.00;100630.03;5058783;28;20078;-79
2022/11/24 06:26:44;;;;;;;21.58;3.50;;;;;;;5.84;100.00;100635.25;5059592;28;20464;-79
2022/11/24 06:29:09;;;;;;;16.10;3.45;;;;;;;5.82;100.00;100631.81;5059266;28;20021;-79
2022/11/24 06:31:35;;;;;;;20.85;3.33;;;;;;;5.93;100.00;100660.22;5058817;28;20057;-79
2022/11/24 06:34:00;;;;;;;16.17;3.17;;;;;;;5.57;100.00;100612.16;5059523;28;20044;-79
2022/11/24 06:36:26;;;;;;;16.90;2.60;;;;;;;5.78;100.00;100655.97;5058467;28;20064;-79
2022/11/24 06:38:52;;;;;;;21.05;3.15;;;;;;;5.85;100.00;100664.56;5054885;28;20127;-79
2022/11/24 06:41:18;;;;;;;18.88;2.63;;;;;;;5.72;100.00;100653.47;5055953;28;20469;-79
2022/11/24 06:43:43;;;;;;;15.75;2.67;;;;;;;5.90;100.00;100687.81;5055474;28;20535;-79
2022/11/24 06:46:09;;;;;;;13.57;2.45;;;;;;;5.74;100.00;100669.81;5056162;28;20023;-79
2022/11/24 06:48:35;;;;;;;17.70;3.58;;;;;;;5.61;100.00;100647.47;5055916;28;20052;-79
2022/11/24 06:51:17;;;;;;;13.77;2.28;;;;;;;5.60;100.00;100650.94;5053420;28;20067;-79
2022/11/24 06:53:48;;;;;;;8.18;1.80;;;;;;;5.84;100.00;100699.91;5055974;28;20060;-80
2022/11/24 06:56:18;;;;;;;11.32;2.13;;;;;;;5.81;100.00;100705.09;5056025;28;20025;-79
2022/11/24 06:58:46;;;;;;;12.95;1.80;;;;;;;5.75;100.00;100710.31;5055177;28;20017;-79
2022/11/24 07:01:23;;;;;;;11.35;1.85;;;;;;;5.71;100.00;100721.56;5055498;28;20053;-79
2022/11/24 07:03:50;;;;;;;13.20;1.98;;;;;;;5.64;100.00;100725.91;5056013;28;20028;-79
2022/11/24 07:06:17;;;;;;;11.30;2.13;;;;;;;5.53;100.00;100716.50;5055055;28;20033;-79
2022/11/24 07:08:42;;;;;;;8.10;1.85;;;;;;;5.55;100.00;100736.28;5055799;28;20052;-79
2022/11/24 07:11:11;;;;;;;10.55;2.35;;;;;;;5.50;100.00;100742.38;5055808;28;20473;-79
2022/11/24 07:13:36;;;;;;;9.70;2.50;;;;;;;5.53;100.00;100756.13;5054909;28;20070;-79
2022/11/24 07:16:11;;;;;;;14.40;2.17;;;;;;;5.54;100.00;100763.03;5055642;28;20025;-79
2022/11/24 07:18:36;;;;;;;10.82;2.15;;;;;;;5.54;100.00;100770.78;5055654;28;20407;-79
2022/11/24 07:21:04;;;;;;;13.93;1.85;;;;;;;5.56;100.00;100773.38;5054388;28;20036;-79
2022/11/24 07:23:30;;;;;;;12.40;2.42;;;;;;;5.62;100.00;100774.22;5055250;28;20377;-79
2022/11/24 07:25:55;;;;;;;15.05;2.25;;;;;;;5.61;100.00;100787.13;5054210;28;20021;-79
2022/11/24 07:28:20;;;;;;;9.60;2.08;;;;;;;5.59;100.00;100783.69;5055398;28;20093;-79
2022/11/24 07:30:46;;;;;;;12.35;1.90;;;;;;;5.50;100.00;100784.59;5055399;28;20035;-79
2022/11/24 07:33:11;;;;;;;12.32;2.53;;;;;;;5.33;100.00;100774.31;5054344;28;20079;-79
2022/11/24 07:35:36;;;;;;;11.55;2.00;;;;;;;5.29;100.00;100785.50;5055228;28;20522;-79
2022/11/24 07:38:02;;;;;;;11.63;2.08;;;;;;;5.33;100.00;100807.03;5055109;28;20017;-79
2022/11/24 07:40:27;;;;;;;13.50;1.95;;;;;;;5.16;100.00;100784.66;5054163;28;20033;-79
2022/11/24 07:42:53;;;;;;;12.68;2.03;;;;;;;5.16;100.00;100796.75;5054730;28;20159;-79
2022/11/24 07:45:18;;;;;;;10.15;2.75;;;;;;;5.16;100.00;100815.69;5054844;28;20029;-79
2022/11/24 07:47:43;;;;;;;12.85;2.05;;;;;;;5.13;100.00;100820.00;5054328;28;20029;-79
2022/11/24 07:50:09;;;;;;;12.27;1.90;;;;;;;5.08;100.00;100814.00;5054458;28;20100;-79
2022/11/24 07:52:36;;;;;;;8.82;2.20;;;;;;;5.10;100.00;100822.59;5054556;28;20025;-79
2022/11/24 07:55:01;;;;;;;12.50;2.33;;;;;;;5.03;100.00;100826.91;5054196;28;20028;-79
2022/11/24 07:57:27;;;;;;;14.82;2.35;;;;;;;5.05;100.00;100834.66;5054849;28;20025;-79
2022/11/24 07:59:53;;;;;;;11.38;2.05;;;;;;;5.03;100.00;100836.38;5054478;28;20068;-79
2022/11/24 08:02:19;;;;;;;15.55;2.35;;;;;;;5.04;100.00;100843.28;5053793;28;20059;-79
2022/11/24 08:04:44;;;;;;;14.35;2.40;;;;;;;5.03;100.00;100844.97;5054539;28;20025;-79
2022/11/24 08:07:09;;;;;;;12.95;2.53;;;;;;;5.07;100.00;100856.22;5054661;28;20025;-79
2022/11/24 08:09:34;;;;;;;19.13;3.00;;;;;;;5.05;100.00;100851.03;5053743;28;20393;-79
2022/11/24 08:12:00;;;;;;;17.92;2.88;;;;;;;5.06;100.00;100859.63;5054519;28;20028;-79
2022/11/24 08:14:25;;;;;;;15.25;2.78;;;;;;;5.03;100.00;100847.56;5054093;28;20025;-79
2022/11/24 08:16:50;;;;;;;14.35;2.90;;;;;;;5.08;100.00;100858.78;5053524;28;20100;-79
2022/11/24 08:19:15;;;;;;;19.35;2.80;;;;;;;5.08;100.00;100857.91;5053680;28;20423;-79
2022/11/24 08:21:41;;;;;;;18.38;2.88;;;;;;;5.09;100.00;100865.66;5054330;28;20029;-79
2022/11/24 08:24:07;;;;;;;16.15;3.05;;;;;;;5.13;100.00;100884.59;5053242;28;20117;-79
2022/11/24 08:26:32;;;;;;;15.23;2.95;;;;;;;5.15;100.00;100875.13;5053928;28;20031;-79
2022/11/24 08:28:58;;;;;;;15.70;2.97;;;;;;;5.08;100.00;100866.53;5054145;28;20021;-79
2022/11/24 08:31:31;;;;;;;20.10;3.20;;;;;;;5.11;100.00;100873.44;5053210;28;20076;-79
2022/11/24 08:33:56;;;;;;;13.52;2.72;;;;;;;5.18;100.00;100894.97;5053965;28;20100;-79
2022/11/24 08:36:21;;;;;;;15.75;3.03;;;;;;;5.22;100.00;100894.94;5053418;28;20063;-79
2022/11/24 08:38:48;;;;;;;11.02;2.88;;;;;;;5.15;100.00;100885.47;5053991;28;20021;-79
2022/11/24 08:41:15;;;;;;;18.40;2.70;;;;;;;5.24;100.00;100907.88;5053851;28;20032;-79
2022/11/24 08:43:41;;;;;;;17.77;2.60;;;;;;;5.14;100.00;100894.09;5052940;28;20021;-79
2022/11/24 08:46:10;;;;;;;13.95;2.90;;;;;;;5.26;100.00;100913.91;5054052;28;20071;-79
2022/11/24 08:48:36;;;;;;;13.05;3.03;;;;;;;5.33;100.00;100920.78;5053912;28;20028;-79
2022/11/24 08:51:13;;;;;;;11.75;2.90;;;;;;;5.33;100.00;100920.78;5052847;28;20021;-79
2022/11/24 08:53:39;;;;;;;16.88;3.17;;;;;;;5.30;100.00;100915.63;5053689;28;20021;-79
2022/11/24 08:56:06;;;;;;;12.73;3.03;;;;;;;5.40;100.00;100933.72;5053593;28;20029;-79
2022/11/24 08:58:32;;;;;;;20.05;3.10;;;;;;;5.40;100.00;100933.72;5052800;28;20055;-79
2022/11/24 09:01:05;;;;;;;17.73;3.35;;;;;;;5.43;100.00;100932.88;5052470;28;20453;-79
2022/11/24 09:03:31;;;;;;;24.27;3.63;;;;;;;5.47;100.00;100938.88;5053596;28;20025;-79
2022/11/24 09:05:56;;;;;;;15.15;3.47;;;;;;;5.56;100.00;100952.66;5053000;28;20029;-79
2022/11/24 09:08:21;;;;;;;23.23;3.35;;;;;;;5.51;100.00;100938.00;5053544;28;20021;-79
2022/11/24 09:10:47;;;;;;;14.85;3.92;;;;;;;5.61;100.00;100961.28;5053595;28;20055;-79
2022/11/24 09:13:12;;;;;;;18.25;3.70;;;;;;;5.59;100.00;100946.59;5053018;28;20044;-79
2022/11/24 09:15:37;;;;;;;16.98;3.50;;;;;;;5.66;100.00;100958.69;5053363;28;20024;-79
2022/11/24 09:18:04;;;;;;;17.17;3.67;;;;;;;5.71;100.00;100953.50;5053517;28;20079;-79
2022/11/24 09:20:29;;;;;;;26.75;4.07;;;;;;;5.72;100.00;100966.44;5052117;28;20053;-79
2022/11/24 09:22:55;;;;;;;19.92;3.92;;;;;;;5.64;100.00;100955.25;5053379;28;20060;-79
2022/11/24 09:25:22;;;;;;;20.63;3.25;;;;;;;5.75;100.00;100966.41;5052526;28;20049;-79
2022/11/24 09:27:48;;;;;;;23.92;4.45;;;;;;;5.77;100.00;100979.38;5053140;28;20082;-79
2022/11/24 09:30:14;;;;;;;20.98;4.32;;;;;;;5.76;100.00;100970.75;5053209;28;20120;-79
2022/11/24 09:32:39;;;;;;;26.63;4.00;;;;;;;5.69;100.00;100966.44;5052624;28;20144;-79
2022/11/24 09:35:05;;;;;;;20.00;4.22;;;;;;;5.71;100.00;100963.84;5053197;28;20372;-80
2022/11/24 09:37:31;;;;;;;20.85;4.65;;;;;;;5.81;100.00;100971.59;5053346;28;20472;-79
2022/11/24 09:39:57;;;;;;;18.33;4.13;;;;;;;5.70;100.00;100960.41;5052349;28;20430;-79
2022/11/24 09:43:18;;;;;;;24.38;4.97;;;;;;;5.93;100.00;100995.75;5053351;28;20036;-79
2022/11/24 09:46:11;;;;;;;20.85;4.00;;;;;;;5.89;100.00;100979.34;5030016;28;20119;-79
2022/11/24 09:48:43;;;;;;;18.55;3.63;;;;;;;5.94;100.00;100981.94;5052275;28;20033;-79
2022/11/24 09:51:11;;;;;;;17.57;4.60;;;;;;;6.02;100.00;101001.78;5053087;28;20170;-79
2022/11/24 09:53:48;;;;;;;21.55;4.63;;;;;;;5.98;100.00;101004.34;5052499;28;20047;-79
2022/11/24 09:56:21;;;;;;;24.50;4.25;;;;;;;6.12;100.00;101007.81;5053167;28;20027;-79
2022/11/24 09:58:50;;;;;;;18.50;4.35;;;;;;;6.14;100.00;101016.41;5053193;28;20021;-79
2022/11/24 10:01:30;;;;;;;23.52;4.28;;;;;;;6.06;100.00;101002.63;5051863;28;20078;-79
2022/11/24 10:03:55;;;;;;;20.60;3.80;;;;;;;6.15;100.00;101012.97;5053290;28;20029;-79
2022/11/24 10:06:50;;;;;;;20.98;4.20;;;;;;;6.21;100.00;101014.66;5053078;28;20029;-79
2022/11/24 10:09:30;;;;;;;24.17;4.35;;;;;;;6.22;100.00;101021.59;5030623;28;20033;-80
2022/11/24 10:12:14;;;;;;;16.80;4.72;;;;;;;6.23;100.00;101025.88;5054244;28;20036;-79
2022/11/24 10:15:03;;;;;;;25.67;4.03;;;;;;;6.20;100.00;101018.13;5055826;28;20075;-79
2022/11/24 10:17:47;;;;;;;24.00;4.40;;;;;;;6.28;100.00;101035.38;5056867;28;20031;-79
2022/11/24 10:20:27;;;;;;;25.63;4.97;;;;;;;6.33;100.00;101045.69;5056324;28;20033;-79
2022/11/24 10:23:10;;;;;;;16.65;4.00;;;;;;;6.35;100.00;101043.13;5055630;28;20412;-79
2022/11/24 10:25:57;;;;;;;24.65;4.32;;;;;;;6.36;100.00;101047.44;5056615;28;20429;-79
2022/11/24 10:28:30;;;;;;;22.60;4.55;;;;;;;6.41;100.00;101040.50;5056281;28;20407;-79
2022/11/24 10:31:15;;;;;;;22.65;4.10;;;;;;;6.42;100.00;101048.28;5055725;28;20046;-79
2022/11/24 10:33:41;;;;;;;20.02;4.20;;;;;;;6.44;100.00;101051.72;5056178;28;20033;-79
2022/11/24 10:36:10;;;;;;;23.15;4.63;;;;;;;6.49;100.00;101059.47;5055308;28;20464;-79
2022/11/24 10:38:56;;;;;;;18.83;4.43;;;;;;;6.54;100.00;101058.59;5056128;28;20486;-79
2022/11/24 10:41:48;;;;;;;19.38;4.15;;;;;;;6.55;100.00;101062.91;5056304;28;20037;-79
2022/11/24 10:44:14;;;;;;;24.50;4.07;;;;;;;6.61;100.00;101059.44;5054630;28;20029;-79
2022/11/24 10:46:39;;;;;;;20.55;3.95;;;;;;;6.61;100.00;101056.84;5056362;28;20147;-79
2022/11/24 10:49:05;;;;;;;18.70;3.97;;;;;;;6.66;100.00;101056.81;5055956;28;20117;-79
2022/11/24 10:51:39;;;;;;;15.40;4.10;;;;;;;6.66;100.00;101057.66;5055227;28;20021;-79
2022/11/24 10:54:14;;;;;;;20.02;4.38;;;;;;;6.68;100.00;101049.91;5055875;28;20491;-79
2022/11/24 10:56:40;;;;;;;20.85;4.53;;;;;;;6.68;100.00;101044.72;5056041;28;20024;-79
2022/11/24 10:59:24;;;;;;;14.90;3.70;;;;;;;6.67;100.00;101056.81;5055217;28;20021;-79
2022/11/24 11:01:53;;;;;;;21.23;4.53;;;;;;;6.70;100.00;101049.03;5055727;28;20037;-79
2022/11/24 11:04:31;;;;;;;16.70;4.10;;;;;;;6.69;100.00;101036.94;5055155;28;20025;-80
2022/11/24 11:07:16;;;;;;;19.67;4.65;;;;;;;6.74;100.00;101053.34;5055835;28;20365;-79
2022/11/24 11:09:42;;;;;;;16.83;3.92;;;;;;;6.78;100.00;101044.69;5055602;28;20021;-79
2022/11/24 11:12:19;;;;;;;19.05;4.25;;;;;;;6.79;100.00;101040.34;5055082;28;20025;-79
2022/11/24 11:14:47;;;;;;;23.98;4.07;;;;;;;6.80;100.00;101047.25;5055646;28;20045;-79
2022/11/24 11:17:33;;;;;;;19.77;4.18;;;;;;;6.88;100.00;101052.41;5055703;28;20119;-79
2022/11/24 11:20:16;;;;;;;19.60;3.90;;;;;;;6.93;100.00;101046.34;5054585;28;20100;-79
2022/11/24 11:22:45;;;;;;;14.13;2.87;;;;;;;6.96;100.00;101040.25;5055088;28;20033;-79